Time;durP1;ratioP1;P1;durP2;ratioP2;P2;SDS_P1;SDS_P2;PMS_P1;PMS_P2;Temp;Humidity;BMP_temperature;BMP_pressure;BME280_temperature;BME280_humidity;BME280_pressure;Samples;Min_cycle;Max_cycle;Signal;HPM_P1;HPM_P2
2022/07/05 00:00:43;;;;;;;;;;;;;;;18.03;100.00;100902.13;1738427;82;21807;-87
2022/07/05 00:03:11;;;;;;;;;;;;;;;17.99;100.00;100898.68;1738562;82;20136;-88
2022/07/05 00:05:43;;;;;;;;;;;;;;;17.90;100.00;100903.03;1738049;82;20167;-88
2022/07/05 00:08:18;;;;;;;;;;;;;;;17.85;100.00;100910.59;1738604;82;20234;-88
2022/07/05 00:10:51;;;;;;;;;;;;;;;17.79;100.00;100907.58;1725531;82;20169;-89
2022/07/05 00:13:18;;;;;;;;;;;;;;;17.76;100.00;100908.38;1725229;82;21123;-87
2022/07/05 00:15:46;;;;;;;;;;;;;;;17.74;100.00;100896.70;1742410;82;20135;-88
2022/07/05 00:18:15;;;;;;;;;;;;;;;17.76;100.00;100903.11;1706766;84;20208;-88
2022/07/05 00:20:41;;;;;;;;;;;;;;;17.77;100.00;100905.61;1752207;81;20468;-87
2022/07/05 00:23:12;;;;;;;;;;;;;;;17.76;100.00;100901.32;1742680;82;20210;-88
2022/07/05 00:25:39;;;;;;;;;;;;;;;17.73;100.00;100904.77;1752331;82;21083;-89
2022/07/05 00:28:07;;;;;;;;;;;;;;;17.72;100.00;100901.78;1742334;82;20175;-90
2022/07/05 00:30:39;;;;;;;;;;;;;;;17.72;100.00;100901.28;1706420;84;20185;-90
2022/07/05 00:33:34;;;;;;;;;;;;;;;17.74;100.00;100905.10;1707027;83;20149;-88
2022/07/05 00:36:07;;;;;;;;;;;;;;;17.79;100.00;100904.13;1712414;83;20129;-88
2022/07/05 00:38:34;;;;;;;;;;;;;;;17.84;100.00;100901.84;1714164;83;21090;-88
2022/07/05 00:41:01;;;;;;;;;;;;;;;17.88;100.00;100907.16;1742114;82;20164;-89
2022/07/05 00:43:28;;;;;;;;;;;;;;;17.85;100.00;100904.81;1707099;84;20344;-89
2022/07/05 00:45:55;;;;;;;;;;;;;;;17.78;100.00;100903.79;1734926;82;20146;-89
2022/07/05 00:48:23;;;;;;;;;;;;;;;17.73;100.00;100904.77;1720918;83;20458;-88
2022/07/05 00:50:51;;;;;;;;;;;;;;;17.65;100.00;100903.73;1721225;83;21175;-87
2022/07/05 00:53:18;;;;;;;;;;;;;;;17.61;100.00;100909.45;1720666;83;20435;-89
2022/07/05 00:55:47;;;;;;;;;;;;;;;17.56;100.00;100912.55;1721336;83;20172;-88
2022/07/05 00:58:15;;;;;;;;;;;;;;;17.55;100.00;100910.89;1713770;83;20125;-87
2022/07/05 01:00:49;;;;;;;;;;;;;;;17.56;100.00;100907.28;1714866;82;20463;-88
2022/07/05 01:03:27;;;;;;;;;;;;;;;17.56;100.00;100909.92;1743349;82;21146;-88
2022/07/05 01:05:54;;;;;;;;;;;;;;;17.51;100.00;100910.84;1742803;82;20206;-94
2022/07/05 01:08:24;;;;;;;;;;;;;;;17.43;100.00;100917.37;1741094;82;20194;-87
2022/07/05 01:11:19;;;;;;;;;;;;;;;17.40;100.00;100915.06;1762104;81;20462;-88
2022/07/05 01:13:46;;;;;;;;;;;;;;;17.38;100.00;100919.64;1742498;82;20158;-88
2022/07/05 01:16:57;;;;;;;;;;;;;;;17.39;100.00;100917.35;1743618;82;20135;-87
2022/07/05 01:19:24;;;;;;;;;;;;;;;17.40;100.00;100919.83;1743941;82;20147;-88
2022/07/05 01:22:07;;;;;;;;;;;;;;;17.46;100.00;100913.12;1743793;82;20527;-88
2022/07/05 01:24:37;;;;;;;;;;;;;;;17.48;100.00;100913.30;1743804;82;20304;-88
2022/07/05 01:27:09;;;;;;;;;;;;;;;17.52;100.00;100917.77;1743630;82;20461;-88
2022/07/05 01:29:35;;;;;;;;;;;;;;;17.56;100.00;100919.61;1732691;82;21289;-88
2022/07/05 01:32:31;;;;;;;;;;;;;;;17.61;100.00;100918.17;1727141;82;20132;-88
2022/07/05 01:34:58;;;;;;;;;;;;;;;17.64;100.00;100913.92;1726622;83;20195;-87
2022/07/05 01:37:25;;;;;;;;;;;;;;;17.71;100.00;100914.11;1726979;82;20239;-87
2022/07/05 01:39:53;;;;;;;;;;;;;;;17.74;100.00;100916.95;1726924;82;20199;-88
2022/07/05 01:42:19;;;;;;;;;;;;;;;17.75;100.00;100911.98;1726553;82;21194;-91
2022/07/05 01:44:49;;;;;;;;;;;;;;;17.77;100.00;100915.30;1722648;82;20205;-87
2022/07/05 01:47:17;;;;;;;;;;;;;;;17.78;100.00;100915.17;1709622;84;20162;-88
2022/07/05 01:49:46;;;;;;;;;;;;;;;17.79;100.00;100916.80;1709847;84;20149;-88
2022/07/05 01:52:50;;;;;;;;;;;;;;;17.80;100.00;100911.05;1709715;83;20146;-88
2022/07/05 01:55:24;;;;;;;;;;;;;;;17.82;100.00;100909.91;1709783;84;21157;-90
2022/07/05 01:57:51;;;;;;;;;;;;;;;17.87;100.00;100912.55;1709402;84;20166;-88
2022/07/05 02:00:17;;;;;;;;;;;;;;;17.89;100.00;100914.08;1709983;84;20170;-88
2022/07/05 02:02:44;;;;;;;;;;;;;;;17.92;100.00;100911.11;1709444;83;20138;-88
2022/07/05 02:05:25;;;;;;;;;;;;;;;17.99;100.00;100913.17;1706031;84;20169;-88
2022/07/05 02:07:52;;;;;;;;;;;;;;;18.03;100.00;100923.72;1709528;83;21135;-88
2022/07/05 02:10:19;;;;;;;;;;;;;;;18.00;100.00;100924.86;1709675;84;20896;-88
2022/07/05 02:12:46;;;;;;;;;;;;;;;17.95;100.00;100920.06;1711207;84;20192;-90
2022/07/05 02:15:13;;;;;;;;;;;;;;;17.95;100.00;100925.33;1709605;84;20220;-88
2022/07/05 02:17:42;;;;;;;;;;;;;;;17.93;100.00;100923.30;1709672;84;20201;-91
2022/07/05 02:20:10;;;;;;;;;;;;;;;17.93;100.00;100927.76;1709527;84;21156;-89
2022/07/05 02:22:39;;;;;;;;;;;;;;;17.91;100.00;100921.30;1710974;83;20158;-88
2022/07/05 02:25:08;;;;;;;;;;;;;;;17.94;100.00;100920.20;1709490;84;20208;-88
2022/07/05 02:27:35;;;;;;;;;;;;;;;17.99;100.00;100921.08;1709633;84;20187;-88
2022/07/05 02:30:03;;;;;;;;;;;;;;;18.07;100.00;100925.04;1711020;83;20168;-88
2022/07/05 02:32:38;;;;;;;;;;;;;;;18.15;100.00;100925.59;1709667;84;21279;-88
2022/07/05 02:35:09;;;;;;;;;;;;;;;18.21;100.00;100924.95;1709413;84;20142;-88
2022/07/05 02:37:39;;;;;;;;;;;;;;;18.26;100.00;100936.67;1709622;84;20209;-88
2022/07/05 02:40:10;;;;;;;;;;;;;;;18.31;100.00;100938.02;1712023;83;20482;-88
2022/07/05 02:42:40;;;;;;;;;;;;;;;18.34;100.00;100939.01;1737358;82;20170;-88
2022/07/05 02:45:08;;;;;;;;;;;;;;;18.39;100.00;100935.39;1706751;84;21138;-88
2022/07/05 02:47:36;;;;;;;;;;;;;;;18.44;100.00;100935.76;1706199;84;20193;-88
2022/07/05 02:50:07;;;;;;;;;;;;;;;18.48;100.00;100943.67;1706927;84;20198;-88
2022/07/05 02:52:38;;;;;;;;;;;;;;;18.54;100.00;100952.28;1706702;84;20470;-88
2022/07/05 02:55:08;;;;;;;;;;;;;;;18.61;100.00;100949.81;1707014;84;20146;-89
2022/07/05 02:57:38;;;;;;;;;;;;;;;18.69;100.00;100955.11;1706746;84;21143;-89
2022/07/05 03:00:07;;;;;;;;;;;;;;;18.77;100.00;100945.09;1686412;83;20139;-88
2022/07/05 03:02:36;;;;;;;;;;;;;;;18.86;100.00;100949.41;1703719;84;20174;-88
2022/07/05 03:05:04;;;;;;;;;;;;;;;18.96;100.00;100944.00;1706281;83;20502;-88
2022/07/05 03:07:38;;;;;;;;;;;;;;;19.08;100.00;100941.37;1682652;84;20268;-89
2022/07/05 03:10:05;;;;;;;;;;;;;;;19.19;100.00;100943.36;1702327;84;21206;-89
2022/07/05 03:12:34;;;;;;;;;;;;;;;19.29;100.00;100944.52;1702316;84;20150;-89
2022/07/05 03:15:02;;;;;;;;;;;;;;;19.38;100.00;100944.84;1702309;84;20438;-88
2022/07/05 03:17:30;;;;;;;;;;;;;;;19.47;100.00;100938.58;1702164;84;20157;-88
2022/07/05 03:20:02;;;;;;;;;;;;;;;19.57;100.00;100941.55;1702396;84;20197;-92
2022/07/05 03:22:29;;;;;;;;;;;;;;;19.68;100.00;100947.78;1702143;84;21178;-89
2022/07/05 03:24:57;;;;;;;;;;;;;;;19.75;100.00;100943.48;1702081;83;20956;-88
2022/07/05 03:27:24;;;;;;;;;;;;;;;19.84;100.00;100945.63;1702321;84;20181;-89
2022/07/05 03:29:53;;;;;;;;;;;;;;;19.94;100.00;100938.86;1709270;83;20162;-88
2022/07/05 03:32:20;;;;;;;;;;;;;;;20.07;100.00;100937.00;1716786;83;20153;-88
2022/07/05 03:34:48;;;;;;;;;;;;;;;20.18;100.00;100934.81;1716254;83;21172;-88
2022/07/05 03:37:16;;;;;;;;;;;;;;;20.30;100.00;100937.09;1716140;83;20149;-88
2022/07/05 03:39:42;;;;;;;;;;;;;;;20.42;100.00;100931.74;1715557;83;20148;-87
2022/07/05 03:42:10;;;;;;;;;;;;;;;20.55;100.00;100935.67;1716123;83;20142;-87
2022/07/05 03:44:37;;;;;;;;;;;;;;;20.67;100.00;100935.58;1737609;82;20136;-87
2022/07/05 03:47:04;;;;;;;;;;;;;;;20.80;100.00;100935.86;1738084;82;21215;-88
2022/07/05 03:49:31;;;;;;;;;;;;;;;20.92;100.00;100936.79;1737421;82;20152;-88
2022/07/05 03:51:58;;;;;;;;;;;;;;;21.06;100.00;100939.98;1737703;82;20127;-89
2022/07/05 03:54:27;;;;;;;;;;;;;;;21.20;100.00;100942.86;1737458;82;20461;-88
2022/07/05 03:56:55;;;;;;;;;;;;;;;21.32;100.00;100940.12;1737518;82;20203;-88
2022/07/05 03:59:21;;;;;;;;;;;;;;;21.46;100.00;100937.69;1737800;82;20771;-88
2022/07/05 04:01:50;;;;;;;;;;;;;;;21.58;100.00;100934.45;1716327;82;39147;-87
2022/07/05 04:04:17;;;;;;;;;;;;;;;21.71;100.00;100932.51;1737790;82;20473;-88
2022/07/05 04:06:44;;;;;;;;;;;;;;;21.83;100.00;100934.72;1741936;82;20136;-88
2022/07/05 04:09:12;;;;;;;;;;;;;;;21.94;100.00;100932.92;1742568;82;20469;-89
2022/07/05 04:11:39;;;;;;;;;;;;;;;22.04;100.00;100936.13;1742625;82;21178;-88
2022/07/05 04:14:08;;;;;;;;;;;;;;;22.15;100.00;100933.52;1752011;82;20146;-88
2022/07/05 04:16:35;;;;;;;;;;;;;;;22.26;100.00;100936.20;1707099;83;20186;-87
2022/07/05 04:19:02;;;;;;;;;;;;;;;22.38;100.00;100938.71;1706529;84;20185;-88
2022/07/05 04:21:29;;;;;;;;;;;;;;;22.49;100.00;100934.78;1706781;83;20470;-88
2022/07/05 04:23:57;;;;;;;;;;;;;;;22.62;100.00;100930.13;1716332;83;21122;-87
2022/07/05 04:26:24;;;;;;;;;;;;;;;22.77;100.00;100930.06;1716145;83;20141;-88
2022/07/05 04:28:51;;;;;;;;;;;;;;;22.92;100.00;100926.03;1716353;83;20184;-87
2022/07/05 04:31:20;;;;;;;;;;;;;;;23.08;100.00;100932.09;1702348;84;20198;-87
2022/07/05 04:33:47;;;;;;;;;;;;;;;23.23;100.00;100932.06;1711240;82;20445;-88
2022/07/05 04:36:16;;;;;;;;;;;;;;;23.38;100.00;100933.30;1707919;82;21895;-87
2022/07/05 04:38:44;;;;;;;;;;;;;;;23.49;100.00;100931.45;1703314;84;20185;-87
2022/07/05 04:41:11;;;;;;;;;;;;;;;23.63;100.00;100931.84;1702471;84;20494;-91
2022/07/05 04:43:39;;;;;;;;;;;;;;;23.76;100.00;100934.27;1700474;84;20525;-88
2022/07/05 04:46:08;;;;;;;;;;;;;;;23.90;100.00;100933.84;1713040;82;20432;-88
2022/07/05 04:48:34;;;;;;;;;;;;;;;24.01;100.00;100937.32;1709949;83;21253;-88
2022/07/05 04:51:01;;;;;;;;;;;;;;;24.10;100.00;100936.63;1713272;83;20439;-87
2022/07/05 04:53:29;;;;;;;;;;;;;;;24.19;100.00;100935.98;1709703;83;20192;-91
2022/07/05 04:55:56;;;;;;;;;;;;;;;24.30;100.00;100934.06;1709700;83;20137;-87
2022/07/05 04:58:23;;;;;;;;;;;;;;;24.43;100.00;100937.28;1709944;84;20181;-88
2022/07/05 05:00:50;;;;;;;;;;;;;;;24.55;100.00;100930.38;1710323;83;21101;-89
2022/07/05 05:03:19;;;;;;;;;;;;;;;24.70;100.00;100934.21;1711693;82;20217;-88
2022/07/05 05:05:46;;;;;;;;;;;;;;;24.84;100.00;100936.39;1711634;83;20201;-87
2022/07/05 05:08:14;;;;;;;;;;;;;;;24.99;100.00;100940.22;1711812;83;20197;-89
2022/07/05 05:10:42;;;;;;;;;;;;;;;25.14;100.00;100936.53;1712153;83;20180;-88
2022/07/05 05:13:09;;;;;;;;;;;;;;;25.29;100.00;100933.65;1728697;83;21283;-89
2022/07/05 05:15:36;;;;;;;;;;;;;;;25.42;100.00;100932.85;1717365;82;20478;-89
2022/07/05 05:18:04;;;;;;;;;;;;;;;25.55;100.00;100934.69;1753317;81;20484;-89
2022/07/05 05:20:32;;;;;;;;;;;;;;;25.67;100.00;100939.19;1753447;81;20260;-87
2022/07/05 05:23:00;;;;;;;;;;;;;;;25.79;100.00;100931.89;1733137;81;20189;-89
2022/07/05 05:25:29;;;;;;;;;;;;;;;25.93;100.00;100925.98;1723541;83;21814;-89
2022/07/05 05:27:55;;;;;;;;;;;;;;;26.06;100.00;100929.13;1725712;81;20140;-89
2022/07/05 05:30:22;;;;;;;;;;;;;;;26.21;100.00;100931.57;1730110;81;20147;-88
2022/07/05 05:32:49;;;;;;;;;;;;;;;26.35;100.00;100933.14;1729996;83;20186;-88
2022/07/05 05:35:20;;;;;;;;;;;;;;;26.50;100.00;100928.03;1729895;81;20152;-89
2022/07/05 05:37:50;;;;;;;;;;;;;;;26.64;100.00;100925.58;1730355;82;21167;-88
2022/07/05 05:40:17;;;;;;;;;;;;;;;26.76;100.00;100926.58;1730339;83;20150;-89
2022/07/05 05:42:44;;;;;;;;;;;;;;;26.91;100.00;100926.78;1730102;82;20440;-89
2022/07/05 05:45:12;;;;;;;;;;;;;;;27.03;100.00;100932.23;1730395;82;20159;-89
2022/07/05 05:47:48;;;;;;;;;;;;;;;27.12;100.00;100926.93;1730463;81;20140;-89
2022/07/05 05:50:24;;;;;;;;;;;;;;;27.23;100.00;100924.06;1730602;83;21802;-89
2022/07/05 05:52:53;;;;;;;;;;;;;;;27.35;100.00;100933.02;1730599;82;20151;-89
2022/07/05 05:55:21;;;;;;;;;;;;;;;27.44;100.00;100924.75;1730540;81;20171;-89
2022/07/05 05:57:48;;;;;;;;;;;;;;;27.50;100.00;100930.54;1730459;81;20237;-89
2022/07/05 06:00:16;;;;;;;;;;;;;;;27.55;100.00;100927.51;1730651;83;20143;-89
2022/07/05 06:02:43;;;;;;;;;;;;;;;27.62;100.00;100928.76;1730284;81;21129;-88
2022/07/05 06:05:11;;;;;;;;;;;;;;;27.71;100.00;100925.29;1726646;82;20204;-91
2022/07/05 06:07:52;;;;;;;;;;;;;;;27.85;100.00;100921.42;1729840;82;20174;-91
2022/07/05 06:10:28;;;;;;;;;;;;;;;27.99;100.00;100924.77;1730434;81;20152;-89
2022/07/05 06:12:58;;;;;;;;;;;;;;;28.12;100.00;100922.45;1729965;83;20189;-89
2022/07/05 06:15:25;;;;;;;;;;;;;;;28.25;100.00;100923.34;1730222;82;21242;-89
2022/07/05 06:17:52;;;;;;;;;;;;;;;28.34;100.00;100924.13;1730471;83;20663;-89
2022/07/05 06:20:21;;;;;;;;;;;;;;;28.45;100.00;100925.75;1730666;83;20330;-89
2022/07/05 06:22:50;;;;;;;;;;;;;;;28.56;100.00;100921.48;1730117;83;20216;-89
2022/07/05 06:25:17;;;;;;;;;;;;;;;28.69;100.00;100913.77;1730635;83;20145;-89
2022/07/05 06:27:46;;;;;;;;;;;;;;;28.82;100.00;100915.47;1730215;83;21887;-88
2022/07/05 06:30:16;;;;;;;;;;;;;;;28.94;100.00;100914.44;1726280;83;20269;-89
2022/07/05 06:32:49;;;;;;;;;;;;;;;29.01;100.00;100919.67;1713295;83;20445;-89
2022/07/05 06:35:17;;;;;;;;;;;;;;;29.04;100.00;100914.40;1713809;83;20208;-89
2022/07/05 06:37:56;;;;;;;;;;;;;;;29.08;100.00;100913.70;1713374;83;20188;-91
2022/07/05 06:40:26;;;;;;;;;;;;;;;29.12;100.00;100914.86;1713432;83;21140;-89
2022/07/05 06:42:55;;;;;;;;;;;;;;;29.22;100.00;100913.47;1713477;83;20415;-90
2022/07/05 06:45:31;;;;;;;;;;;;;;;29.31;100.00;100922.83;1713619;83;20178;-89
2022/07/05 06:48:07;;;;;;;;;;;;;;;29.40;100.00;100915.23;1713437;83;20150;-90
2022/07/05 06:54:13;;;;;;;;;;;;;;;29.57;95.93;100912.65;1713492;83;21094;-90
2022/07/05 06:56:40;;;;;;;;;;;;;;;29.66;91.74;100912.58;1713476;83;20170;-89
2022/07/05 06:59:12;;;;;;;;;;;;;;;29.73;90.12;100910.58;1713762;83;20146;-88
2022/07/05 07:01:40;;;;;;;;;;;;;;;29.80;86.66;100906.44;1713779;83;20173;-90
2022/07/05 07:04:07;;;;;;;;;;;;;;;29.86;85.06;100901.99;1713638;83;20451;-89
2022/07/05 07:06:34;;;;;;;;;;;;;;;29.96;85.40;100898.72;1713428;82;21147;-89
2022/07/05 07:09:39;;;;;;;;;;;;;;;30.05;82.77;100898.09;1713445;82;20200;-89
2022/07/05 07:12:09;;;;;;;;;;;;;;;30.17;80.06;100898.59;1713771;82;20176;-89
2022/07/05 07:18:15;;;;;;;;;;;;;;;30.37;78.61;100894.13;1728685;82;20198;-89
2022/07/05 07:20:45;;;;;;;;;;;;;;;30.53;75.55;100899.25;1731319;81;21151;-89
2022/07/05 07:23:12;;;;;;;;;;;;;;;30.61;71.98;100896.70;1714577;82;20220;-89
2022/07/05 07:25:40;;;;;;;;;;;;;;;30.68;74.72;100894.67;1729175;82;20184;-89
2022/07/05 07:28:07;;;;;;;;;;;;;;;30.76;71.76;100890.23;1736455;82;20210;-88
2022/07/05 07:30:34;;;;;;;;;;;;;;;30.89;71.03;100889.10;1739501;82;20183;-88
2022/07/05 07:33:01;;;;;;;;;;;;;;;31.02;66.23;100890.64;1732319;82;21185;-89
2022/07/05 07:35:29;;;;;;;;;;;;;;;31.11;65.44;100889.72;1721579;82;20196;-89
2022/07/05 07:38:35;;;;;;;;;;;;;;;31.16;65.01;100897.87;1724812;81;20175;-89
2022/07/05 07:41:06;;;;;;;;;;;;;;;31.18;63.38;100892.24;1721231;82;20147;-89
2022/07/05 07:47:46;;;;;;;;;;;;;;;31.25;64.89;100893.69;1719894;83;21913;-90
2022/07/05 07:50:44;;;;;;;;;;;;;;;31.37;60.04;100890.88;1720128;83;20170;-89
2022/07/05 07:53:44;;;;;;;;;;;;;;;31.33;58.20;100889.77;1727604;82;20143;-88
2022/07/05 07:56:46;;;;;;;;;;;;;;;31.34;60.86;100891.91;1748488;82;20496;-89
2022/07/05 08:03:08;;;;;;;;;;;;;;;31.65;59.32;100892.34;1723203;83;20235;-89
2022/07/05 08:06:16;;;;;;;;;;;;;;;31.85;57.70;100890.45;1738929;82;20197;-93
2022/07/05 08:08:47;;;;;;;;;;;;;;;31.89;56.10;100890.22;1721266;82;20204;-88
2022/07/05 08:11:51;;;;;;;;;;;;;;;31.75;52.53;100893.82;1738887;82;20448;-89
2022/07/05 08:14:18;;;;;;;;;;;;;;;31.63;53.35;100889.88;1728038;82;20183;-89
2022/07/05 08:16:47;;;;;;;;;;;;;;;31.50;51.38;100889.71;1749632;81;21171;-89
2022/07/05 08:26:11;;;;;;;;;;;;;;;31.50;54.99;100878.15;1725746;82;20151;-89
2022/07/05 08:29:16;;;;;;;;;;;;;;;31.83;55.53;100874.53;1750057;81;20163;-89
2022/07/05 08:32:11;;;;;;;;;;;;;;;32.02;53.97;100870.17;1749678;81;21816;-89
2022/07/05 08:38:32;;;;;;;;;;;;;;;32.16;49.31;100870.59;1749704;82;20186;-89
2022/07/05 08:45:02;;;;;;;;;;;;;;;32.40;51.04;100873.27;1720052;83;20162;-89
2022/07/05 08:47:58;;;;;;;;;;;;;;;32.55;48.57;100864.48;1720927;82;21897;-89
2022/07/05 08:57:31;;;;;;;;;;;;;;;32.75;48.47;100868.95;1731213;81;20222;-90
2022/07/05 09:00:36;;;;;;;;;;;;;;;32.81;44.76;100873.36;1719787;83;20150;-90
2022/07/05 09:03:07;;;;;;;;;;;;;;;32.78;43.94;100872.52;1719989;83;21756;-89
2022/07/05 09:05:44;;;;;;;;;;;;;;;32.81;44.97;100863.92;1719642;83;20181;-90
2022/07/05 09:12:07;;;;;;;;;;;;;;;32.83;45.37;100860.41;1720293;83;20167;-91
2022/07/05 09:18:48;;;;;;;;;;;;;;;33.10;43.28;100860.86;1720032;83;20191;-89
2022/07/05 09:24:56;;;;;;;;;;;;;;;33.28;38.71;100866.34;1720503;83;20143;-89
2022/07/05 09:31:30;;;;;;;;;;;;;;;33.29;40.79;100867.42;1724950;82;20172;-90
2022/07/05 09:37:47;;;;;;;;;;;;;;;33.49;41.45;100857.84;1717478;82;20190;-90
2022/07/05 09:44:25;;;;;;;;;;;;;;;33.69;40.73;100856.30;1717332;82;20194;-90
2022/07/05 09:46:56;;;;;;;;;;;;;;;33.82;40.88;100852.53;1683818;84;20558;-89
2022/07/05 09:54:00;;;;;;;;;;;;;;;33.96;39.59;100850.73;1737927;82;20186;-90
2022/07/05 09:57:03;;;;;;;;;;;;;;;34.12;39.39;100849.67;1747074;81;20212;-90
2022/07/05 09:59:30;;;;;;;;;;;;;;;34.19;39.24;100842.64;1704902;82;20183;-90
2022/07/05 10:02:34;;;;;;;;;;;;;;;34.18;39.24;100845.06;1713397;83;20148;-90
2022/07/05 10:05:10;;;;;;;;;;;;;;;34.15;39.06;100842.09;1716090;83;21124;-89
2022/07/05 10:07:50;;;;;;;;;;;;;;;34.09;37.76;100843.44;1717489;82;20144;-89
2022/07/05 10:14:19;;;;;;;;;;;;;;;34.04;39.22;100839.39;1703036;84;20170;-90
2022/07/05 10:17:01;;;;;;;;;;;;;;;34.21;39.96;100837.78;1696260;83;20142;-90
2022/07/05 10:23:29;;;;;;;;;;;;;;;34.52;40.98;100837.01;1714618;82;20273;-90
2022/07/05 10:25:57;;;;;;;;;;;;;;;34.70;41.39;100834.28;1712892;83;20259;-91
2022/07/05 10:28:51;;;;;;;;;;;;;;;34.77;40.26;100834.00;1702052;83;20506;-90
2022/07/05 10:31:38;;;;;;;;;;;;;;;34.81;40.67;100831.84;1723915;82;20200;-90
2022/07/05 10:41:40;;;;;;;;;;;;;;;34.74;39.98;100825.88;1751817;82;20143;-89
2022/07/05 10:48:28;;;;;;;;;;;;;;;34.62;38.19;100819.41;1734465;82;20212;-90
2022/07/05 10:55:18;;;;;;;;;;;;;;;34.90;39.20;100822.64;1721912;83;20200;-90
2022/07/05 10:58:05;;;;;;;;;;;;;;;34.84;38.78;100825.06;1721753;83;20199;-91
2022/07/05 11:04:39;;;;;;;;;;;;;;;34.65;40.41;100824.28;1740348;82;20182;-90
2022/07/05 11:18:56;;;;;;;;;;;;;;;34.59;38.63;100821.32;1729660;83;20187;-90
2022/07/05 11:25:19;;;;;;;;;;;;;;;34.66;38.11;100815.61;1732486;82;21040;-90
2022/07/05 11:32:06;;;;;;;;;;;;;;;34.93;37.60;100799.11;1749728;82;20163;-90
2022/07/05 11:42:25;;;;;;;;;;;;;;;35.58;37.42;100790.72;1749634;82;20460;-90
2022/07/05 11:44:55;;;;;;;;;;;;;;;35.74;35.93;100789.53;1746805;82;20159;-92
2022/07/05 11:55:25;;;;;;;;;;;;;;;35.22;33.65;100793.05;1719848;83;20157;-90
2022/07/05 12:06:17;;;;;;;;;;;;;;;34.01;36.33;100777.00;1719873;83;20228;-90
2022/07/05 12:12:44;;;;;;;;;;;;;;;34.97;37.69;100768.27;1720144;83;20337;-90
2022/07/05 12:15:38;;;;;;;;;;;;;;;35.31;36.78;100768.38;1719998;83;21139;-90
2022/07/05 12:18:35;;;;;;;;;;;;;;;35.44;35.54;100772.41;1719557;83;20145;-90
2022/07/05 12:21:03;;;;;;;;;;;;;;;35.38;36.03;100773.47;1727388;82;20156;-90
2022/07/05 12:23:36;;;;;;;;;;;;;;;35.20;35.76;100768.15;1739431;82;20153;-90
2022/07/05 12:26:03;;;;;;;;;;;;;;;35.05;34.98;100766.34;1720085;83;20145;-90
2022/07/05 12:36:51;;;;;;;;;;;;;;;35.29;36.70;100758.92;1710574;83;20424;-90
2022/07/05 12:47:34;;;;;;;;;;;;;;;34.96;36.26;100759.33;1732782;82;20144;-90
2022/07/05 12:50:29;;;;;;;;;;;;;;;34.72;36.01;100759.12;1738992;82;20461;-91
2022/07/05 12:59:28;;;;;;;;;;;;;;;34.70;34.53;100759.37;1707509;83;20150;-91
2022/07/05 13:05:55;;;;;;;;;;;;;;;34.67;34.70;100745.59;1715125;83;20130;-90
2022/07/05 13:08:55;;;;;;;;;;;;;;;34.80;34.28;100745.55;1726223;83;20170;-91
2022/07/05 13:11:32;;;;;;;;;;;;;;;34.89;33.71;100753.41;1730824;83;20143;-89
2022/07/05 13:13:59;;;;;;;;;;;;;;;34.84;33.92;100754.20;1704441;83;20209;-90
2022/07/05 13:16:30;;;;;;;;;;;;;;;34.73;34.59;100749.37;1717902;83;21121;-90
2022/07/05 13:19:15;;;;;;;;;;;;;;;34.74;34.73;100747.47;1693503;83;20226;-90
2022/07/05 13:21:41;;;;;;;;;;;;;;;34.86;33.46;100744.45;1701542;84;20162;-90
2022/07/05 13:24:11;;;;;;;;;;;;;;;34.93;34.71;100752.31;1704881;82;20188;-90
2022/07/05 13:26:40;;;;;;;;;;;;;;;34.78;33.88;100743.66;1739043;82;20150;-89
2022/07/05 13:29:40;;;;;;;;;;;;;;;34.50;34.13;100747.27;1753805;82;21127;-90
2022/07/05 13:32:08;;;;;;;;;;;;;;;34.22;34.79;100744.02;1740541;82;20563;-91
2022/07/05 13:34:34;;;;;;;;;;;;;;;34.04;34.97;100742.69;1734751;82;20191;-90
2022/07/05 13:40:46;;;;;;;;;;;;;;;33.72;35.01;100745.06;1729481;82;20194;-89
2022/07/05 13:43:13;;;;;;;;;;;;;;;33.54;35.49;100740.45;1743986;82;21158;-90
2022/07/05 13:45:41;;;;;;;;;;;;;;;33.59;34.94;100737.77;1743781;82;20171;-90
2022/07/05 13:48:53;;;;;;;;;;;;;;;33.68;35.61;100736.70;1713541;82;20170;-90
2022/07/05 13:51:21;;;;;;;;;;;;;;;33.64;35.13;100738.33;1705902;84;20304;-89
2022/07/05 13:53:48;;;;;;;;;;;;;;;33.33;34.57;100744.45;1707237;83;20229;-89
2022/07/05 13:56:47;;;;;;;;;;;;;;;33.06;34.95;100747.30;1707583;83;21205;-90
2022/07/05 13:59:15;;;;;;;;;;;;;;;32.84;35.69;100741.55;1707525;83;20147;-90
2022/07/05 14:01:47;;;;;;;;;;;;;;;32.70;35.92;100734.43;1743476;82;20183;-90
2022/07/05 14:04:48;;;;;;;;;;;;;;;32.52;36.26;100738.89;1743366;82;20171;-89
2022/07/05 14:07:16;;;;;;;;;;;;;;;32.27;35.81;100732.26;1736159;82;20146;-89
2022/07/05 14:13:22;;;;;;;;;;;;;;;32.03;35.66;100731.78;1720838;82;20124;-90
2022/07/05 14:15:49;;;;;;;;;;;;;;;32.34;35.98;100727.45;1716078;82;20173;-90
2022/07/05 14:25:30;;;;;;;;;;;;;;;33.24;35.86;100724.98;1752508;82;20143;-90
2022/07/05 14:31:56;;;;;;;;;;;;;;;33.48;35.29;100728.02;1750847;82;20217;-90
2022/07/05 14:38:24;;;;;;;;;;;;;;;33.54;36.52;100728.30;1698636;83;20703;-91
2022/07/05 14:48:09;;;;;;;;;;;;;;;33.62;34.96;100708.08;1726614;83;20164;-92
2022/07/05 14:55:18;;;;;;;;;;;;;;;33.64;34.37;100718.08;1712778;83;20469;-92
2022/07/05 15:01:42;;;;;;;;;;;;;;;33.45;35.80;100719.13;1712758;83;20148;-91
2022/07/05 15:08:16;;;;;;;;;;;;;;;33.31;35.77;100716.92;1712965;83;20148;-91
2022/07/05 15:14:49;;;;;;;;;;;;;;;33.13;36.38;100720.09;1701982;84;21053;-90
2022/07/05 15:21:23;;;;;;;;;;;;;;;33.11;35.36;100723.59;1732847;82;20207;-92
2022/07/05 15:23:50;;;;;;;;;;;;;;;33.08;36.69;100727.63;1734480;81;20171;-93
2022/07/05 15:26:18;;;;;;;;;;;;;;;33.08;37.06;100722.23;1697782;84;20175;-91
2022/07/05 15:28:46;;;;;;;;;;;;;;;33.05;35.58;100726.80;1697505;84;21157;-91
2022/07/05 15:31:13;;;;;;;;;;;;;;;32.99;35.60;100724.61;1701972;84;20134;-92
2022/07/05 15:33:40;;;;;;;;;;;;;;;32.90;36.40;100725.38;1719317;83;20167;-90
2022/07/05 15:36:07;;;;;;;;;;;;;;;32.82;36.89;100722.64;1726741;82;20155;-90
2022/07/05 15:38:36;;;;;;;;;;;;;;;32.76;36.48;100718.27;1726661;82;20194;-92
2022/07/05 15:41:43;;;;;;;;;;;;;;;32.73;36.94;100716.92;1726845;82;21813;-92
2022/07/05 15:44:41;;;;;;;;;;;;;;;32.72;36.71;100725.55;1726950;82;20143;-91
2022/07/05 15:47:12;;;;;;;;;;;;;;;32.67;37.43;100726.05;1722732;82;20150;-91
2022/07/05 15:49:42;;;;;;;;;;;;;;;32.61;38.39;100729.25;1709464;84;20467;-91
2022/07/05 15:52:09;;;;;;;;;;;;;;;32.49;38.36;100727.30;1710043;84;20173;-91
2022/07/05 15:55:14;;;;;;;;;;;;;;;32.38;38.42;100735.31;1724593;83;21157;-90
2022/07/05 15:57:49;;;;;;;;;;;;;;;32.31;38.38;100733.38;1717965;82;20193;-90
2022/07/05 16:00:21;;;;;;;;;;;;;;;32.14;39.17;100740.20;1704471;84;20141;-91
2022/07/05 16:02:52;;;;;;;;;;;;;;;32.01;39.39;100736.61;1711363;82;20167;-91
2022/07/05 16:05:22;;;;;;;;;;;;;;;31.86;40.16;100735.41;1713255;82;20143;-92
2022/07/05 16:07:50;;;;;;;;;;;;;;;31.74;39.74;100736.92;1699698;84;21143;-91
2022/07/05 16:10:18;;;;;;;;;;;;;;;31.66;39.97;100738.72;1701655;84;20287;-91
2022/07/05 16:12:45;;;;;;;;;;;;;;;31.60;41.17;100744.55;1688545;84;20462;-88
2022/07/05 16:19:41;;;;;;;;;;;;;;;31.39;41.70;100740.82;1688994;83;20187;-89
2022/07/05 16:22:38;;;;;;;;;;;;;;;31.26;43.06;100733.15;1719014;83;21169;-89
2022/07/05 16:25:34;;;;;;;;;;;;;;;31.18;43.19;100738.97;1710913;84;20451;-89
2022/07/05 16:28:08;;;;;;;;;;;;;;;31.10;43.62;100737.00;1712143;82;20617;-89
2022/07/05 16:30:45;;;;;;;;;;;;;;;31.04;43.80;100740.66;1738145;82;20444;-89
2022/07/05 16:33:15;;;;;;;;;;;;;;;31.00;44.18;100736.83;1727489;82;20162;-88
2022/07/05 16:35:48;;;;;;;;;;;;;;;30.94;44.68;100736.49;1737779;82;21125;-89
2022/07/05 16:38:14;;;;;;;;;;;;;;;30.88;45.20;100736.16;1757839;81;20165;-90
2022/07/05 16:40:42;;;;;;;;;;;;;;;30.80;45.75;100743.58;1741685;82;20163;-89